<?xml version="1.0" encoding="UTF-8" standalone="no" ?>
<gpx xmlns="http://www.topografix.com/GPX/1/1" xmlns:xsi="http://www.w3.org/2001/XMLSchema-instance" xsi:schemaLocation="http://www.topografix.com/GPX/1/1 http://www.topografix.com/GPX/1/1/gpx.xsd" version="1.1" creator="VisuGPX - https://www.visugpx.com">
  <metadata>
    <name>Pomeys-Nord-Est-43-1000</name>
    <desc><![CDATA[Week-end VTT 2019 - Pomeys - Nord-Est - 43 km - D+ : 1000 m]]></desc>
  </metadata>
  <trk>
    <name><![CDATA[Pomeys-Nord-Est-43-1000]]></name>
    <trkseg>
      <trkpt lat="45.64457" lon="4.44805">
        <ele>631.132263</ele>
        <time>2019-07-12T06:41:10Z</time>
      </trkpt>
      <trkpt lat="45.64485" lon="4.44978">
        <ele>635.47998</ele>
        <time>2019-07-12T06:41:18Z</time>
      </trkpt>
      <trkpt lat="45.64697" lon="4.4504">
        <ele>640.528259</ele>
        <time>2019-07-12T06:41:41Z</time>
      </trkpt>
      <trkpt lat="45.64719" lon="4.44945">
        <ele>639.811768</ele>
        <time>2019-07-12T06:42:32Z</time>
      </trkpt>
      <trkpt lat="45.64775" lon="4.44894">
        <ele>638.915588</ele>
        <time>2019-07-12T06:42:49Z</time>
      </trkpt>
      <trkpt lat="45.64831" lon="4.44793">
        <ele>640.283752</ele>
        <time>2019-07-12T06:43:11Z</time>
      </trkpt>
      <trkpt lat="45.64862" lon="4.44809">
        <ele>640.969971</ele>
        <time>2019-07-12T06:43:26Z</time>
      </trkpt>
      <trkpt lat="45.64917" lon="4.44816">
        <ele>643.244873</ele>
        <time>2019-07-12T06:43:31Z</time>
      </trkpt>
      <trkpt lat="45.64937" lon="4.44993">
        <ele>650.686279</ele>
        <time>2019-07-12T06:43:56Z</time>
      </trkpt>
      <trkpt lat="45.64949" lon="4.45025">
        <ele>652.445007</ele>
        <time>2019-07-12T06:44:46Z</time>
      </trkpt>
      <trkpt lat="45.64927" lon="4.45078">
        <ele>650.97998</ele>
        <time>2019-07-12T06:44:54Z</time>
      </trkpt>
      <trkpt lat="45.64925" lon="4.45126">
        <ele>649.405029</ele>
        <time>2019-07-12T06:45:04Z</time>
      </trkpt>
      <trkpt lat="45.64955" lon="4.4526">
        <ele>645.560974</ele>
        <time>2019-07-12T06:45:22Z</time>
      </trkpt>
      <trkpt lat="45.64982" lon="4.45574">
        <ele>628.669983</ele>
        <time>2019-07-12T06:45:26Z</time>
      </trkpt>
      <trkpt lat="45.64997" lon="4.45674">
        <ele>628.321228</ele>
        <time>2019-07-12T06:45:30Z</time>
      </trkpt>
      <trkpt lat="45.65034" lon="4.458">
        <ele>633.626709</ele>
        <time>2019-07-12T06:45:42Z</time>
      </trkpt>
      <trkpt lat="45.65084" lon="4.4586">
        <ele>635.515015</ele>
        <time>2019-07-12T06:45:57Z</time>
      </trkpt>
      <trkpt lat="45.65091" lon="4.45883">
        <ele>635.821228</ele>
        <time>2019-07-12T06:46:05Z</time>
      </trkpt>
      <trkpt lat="45.65095" lon="4.46037">
        <ele>633.630127</ele>
        <time>2019-07-12T06:46:15Z</time>
      </trkpt>
      <trkpt lat="45.65133" lon="4.46343">
        <ele>620.101257</ele>
        <time>2019-07-12T06:46:34Z</time>
      </trkpt>
      <trkpt lat="45.65126" lon="4.46387">
        <ele>618.114563</ele>
        <time>2019-07-12T06:46:42Z</time>
      </trkpt>
      <trkpt lat="45.65099" lon="4.46435">
        <ele>614.862488</ele>
        <time>2019-07-12T06:47:00Z</time>
      </trkpt>
      <trkpt lat="45.65071" lon="4.4654">
        <ele>614.550415</ele>
        <time>2019-07-12T06:47:16Z</time>
      </trkpt>
      <trkpt lat="45.65074" lon="4.46566">
        <ele>616.104858</ele>
        <time>2019-07-12T06:47:25Z</time>
      </trkpt>
      <trkpt lat="45.65089" lon="4.46569">
        <ele>615.283447</ele>
        <time>2019-07-12T06:47:30Z</time>
      </trkpt>
      <trkpt lat="45.65132" lon="4.4661">
        <ele>615.322998</ele>
        <time>2019-07-12T06:47:39Z</time>
      </trkpt>
      <trkpt lat="45.65193" lon="4.46628">
        <ele>619.579834</ele>
        <time>2019-07-12T06:47:42Z</time>
      </trkpt>
      <trkpt lat="45.65226" lon="4.4665">
        <ele>621.457275</ele>
        <time>2019-07-12T06:47:47Z</time>
      </trkpt>
      <trkpt lat="45.6526" lon="4.46683">
        <ele>621.904968</ele>
        <time>2019-07-12T06:47:54Z</time>
      </trkpt>
      <trkpt lat="45.65322" lon="4.46761">
        <ele>621.634644</ele>
        <time>2019-07-12T06:47:56Z</time>
      </trkpt>
      <trkpt lat="45.65355" lon="4.46777">
        <ele>622.374756</ele>
        <time>2019-07-12T06:48:01Z</time>
      </trkpt>
      <trkpt lat="45.6543" lon="4.46796">
        <ele>625.23877</ele>
        <time>2019-07-12T06:48:17Z</time>
      </trkpt>
      <trkpt lat="45.65492" lon="4.46838">
        <ele>628.438721</ele>
        <time>2019-07-12T06:48:20Z</time>
      </trkpt>
      <trkpt lat="45.65518" lon="4.46876">
        <ele>630.304382</ele>
        <time>2019-07-12T06:48:46Z</time>
      </trkpt>
      <trkpt lat="45.65536" lon="4.46891">
        <ele>631.697388</ele>
        <time>2019-07-12T06:48:53Z</time>
      </trkpt>
      <trkpt lat="45.65575" lon="4.46907">
        <ele>635.002258</ele>
        <time>2019-07-12T06:49:03Z</time>
      </trkpt>
      <trkpt lat="45.65578" lon="4.46892">
        <ele>636.10376</ele>
        <time>2019-07-12T06:49:39Z</time>
      </trkpt>
      <trkpt lat="45.65572" lon="4.46858">
        <ele>636.626587</ele>
        <time>2019-07-12T06:50:00Z</time>
      </trkpt>
      <trkpt lat="45.65583" lon="4.46819">
        <ele>639.380005</ele>
        <time>2019-07-12T06:50:15Z</time>
      </trkpt>
      <trkpt lat="45.65592" lon="4.4682">
        <ele>640.575012</ele>
        <time>2019-07-12T06:50:21Z</time>
      </trkpt>
      <trkpt lat="45.65602" lon="4.46845">
        <ele>641.133728</ele>
        <time>2019-07-12T06:50:27Z</time>
      </trkpt>
      <trkpt lat="45.65671" lon="4.46846">
        <ele>650.16626</ele>
        <time>2019-07-12T06:50:35Z</time>
      </trkpt>
      <trkpt lat="45.65682" lon="4.46839">
        <ele>651.413269</ele>
        <time>2019-07-12T06:50:45Z</time>
      </trkpt>
      <trkpt lat="45.65754" lon="4.46715">
        <ele>659.232971</ele>
        <time>2019-07-12T06:50:53Z</time>
      </trkpt>
      <trkpt lat="45.65741" lon="4.46678">
        <ele>661.232483</ele>
        <time>2019-07-12T06:51:04Z</time>
      </trkpt>
      <trkpt lat="45.65754" lon="4.46622">
        <ele>664.908203</ele>
        <time>2019-07-12T06:51:12Z</time>
      </trkpt>
      <trkpt lat="45.65908" lon="4.46661">
        <ele>665.38501</ele>
        <time>2019-07-12T06:51:24Z</time>
      </trkpt>
      <trkpt lat="45.65998" lon="4.46664">
        <ele>665.429993</ele>
        <time>2019-07-12T06:51:44Z</time>
      </trkpt>
      <trkpt lat="45.6606" lon="4.46649">
        <ele>666.084167</ele>
        <time>2019-07-12T06:51:49Z</time>
      </trkpt>
      <trkpt lat="45.66084" lon="4.46628">
        <ele>668.923645</ele>
        <time>2019-07-12T06:51:53Z</time>
      </trkpt>
      <trkpt lat="45.66106" lon="4.4663">
        <ele>670.924988</ele>
        <time>2019-07-12T06:51:55Z</time>
      </trkpt>
      <trkpt lat="45.66129" lon="4.46667">
        <ele>675.875</ele>
        <time>2019-07-12T06:52:00Z</time>
      </trkpt>
      <trkpt lat="45.66142" lon="4.46728">
        <ele>678.254639</ele>
        <time>2019-07-12T06:52:08Z</time>
      </trkpt>
      <trkpt lat="45.66159" lon="4.46772">
        <ele>677.464478</ele>
        <time>2019-07-12T06:52:23Z</time>
      </trkpt>
      <trkpt lat="45.66204" lon="4.46775">
        <ele>682.959717</ele>
        <time>2019-07-12T06:52:31Z</time>
      </trkpt>
      <trkpt lat="45.66237" lon="4.46786">
        <ele>684.121155</ele>
        <time>2019-07-12T06:52:32Z</time>
      </trkpt>
      <trkpt lat="45.6629" lon="4.46778">
        <ele>684.969971</ele>
        <time>2019-07-12T06:52:36Z</time>
      </trkpt>
      <trkpt lat="45.66372" lon="4.46736">
        <ele>694.309814</ele>
        <time>2019-07-12T06:52:39Z</time>
      </trkpt>
      <trkpt lat="45.6639" lon="4.46742">
        <ele>696.837769</ele>
        <time>2019-07-12T06:52:54Z</time>
      </trkpt>
      <trkpt lat="45.66407" lon="4.46757">
        <ele>698.358826</ele>
        <time>2019-07-12T06:53:00Z</time>
      </trkpt>
      <trkpt lat="45.66414" lon="4.46753">
        <ele>700.482056</ele>
        <time>2019-07-12T06:53:02Z</time>
      </trkpt>
      <trkpt lat="45.66408" lon="4.46723">
        <ele>702.92334</ele>
        <time>2019-07-12T06:53:06Z</time>
      </trkpt>
      <trkpt lat="45.66389" lon="4.46685">
        <ele>706.385925</ele>
        <time>2019-07-12T06:53:18Z</time>
      </trkpt>
      <trkpt lat="45.66327" lon="4.46654">
        <ele>709.283508</ele>
        <time>2019-07-12T06:53:27Z</time>
      </trkpt>
      <trkpt lat="45.66303" lon="4.46625">
        <ele>711.698669</ele>
        <time>2019-07-12T06:53:29Z</time>
      </trkpt>
      <trkpt lat="45.66306" lon="4.46618">
        <ele>713.174438</ele>
        <time>2019-07-12T06:53:38Z</time>
      </trkpt>
      <trkpt lat="45.66321" lon="4.46632">
        <ele>713.031189</ele>
        <time>2019-07-12T06:53:55Z</time>
      </trkpt>
      <trkpt lat="45.66334" lon="4.46633">
        <ele>714.026184</ele>
        <time>2019-07-12T06:54:04Z</time>
      </trkpt>
      <trkpt lat="45.66396" lon="4.4661">
        <ele>726.281189</ele>
        <time>2019-07-12T06:54:24Z</time>
      </trkpt>
      <trkpt lat="45.66421" lon="4.46614">
        <ele>728.294189</ele>
        <time>2019-07-12T06:54:35Z</time>
      </trkpt>
      <trkpt lat="45.66427" lon="4.46604">
        <ele>732.019043</ele>
        <time>2019-07-12T06:54:43Z</time>
      </trkpt>
      <trkpt lat="45.66411" lon="4.46593">
        <ele>732.748291</ele>
        <time>2019-07-12T06:54:54Z</time>
      </trkpt>
      <trkpt lat="45.66374" lon="4.46548">
        <ele>741.465454</ele>
        <time>2019-07-12T06:55:26Z</time>
      </trkpt>
      <trkpt lat="45.66351" lon="4.46499">
        <ele>746.51886</ele>
        <time>2019-07-12T06:55:44Z</time>
      </trkpt>
      <trkpt lat="45.66354" lon="4.46491">
        <ele>748.913635</ele>
        <time>2019-07-12T06:56:03Z</time>
      </trkpt>
      <trkpt lat="45.66392" lon="4.46492">
        <ele>755.142517</ele>
        <time>2019-07-12T06:56:36Z</time>
      </trkpt>
      <trkpt lat="45.66462" lon="4.46519">
        <ele>757.561462</ele>
        <time>2019-07-12T06:56:51Z</time>
      </trkpt>
      <trkpt lat="45.66501" lon="4.46513">
        <ele>762.312012</ele>
        <time>2019-07-12T06:57:01Z</time>
      </trkpt>
      <trkpt lat="45.66586" lon="4.46533">
        <ele>767.723999</ele>
        <time>2019-07-12T06:57:43Z</time>
      </trkpt>
      <trkpt lat="45.66619" lon="4.46579">
        <ele>770.059265</ele>
        <time>2019-07-12T06:58:00Z</time>
      </trkpt>
      <trkpt lat="45.66637" lon="4.46622">
        <ele>773.918335</ele>
        <time>2019-07-12T06:58:16Z</time>
      </trkpt>
      <trkpt lat="45.66683" lon="4.46649">
        <ele>778.98114</ele>
        <time>2019-07-12T06:58:35Z</time>
      </trkpt>
      <trkpt lat="45.66738" lon="4.46825">
        <ele>783.594604</ele>
        <time>2019-07-12T06:59:10Z</time>
      </trkpt>
      <trkpt lat="45.66803" lon="4.46882">
        <ele>782.179749</ele>
        <time>2019-07-12T06:59:24Z</time>
      </trkpt>
      <trkpt lat="45.66863" lon="4.4696">
        <ele>779.944702</ele>
        <time>2019-07-12T06:59:33Z</time>
      </trkpt>
      <trkpt lat="45.66955" lon="4.47114">
        <ele>769.775879</ele>
        <time>2019-07-12T06:59:35Z</time>
      </trkpt>
      <trkpt lat="45.67017" lon="4.47142">
        <ele>762.987915</ele>
        <time>2019-07-12T06:59:57Z</time>
      </trkpt>
      <trkpt lat="45.67051" lon="4.47177">
        <ele>758.054077</ele>
        <time>2019-07-12T07:00:07Z</time>
      </trkpt>
      <trkpt lat="45.67155" lon="4.47392">
        <ele>765.799255</ele>
        <time>2019-07-12T07:00:11Z</time>
      </trkpt>
      <trkpt lat="45.67188" lon="4.47486">
        <ele>768.294006</ele>
        <time>2019-07-12T07:00:46Z</time>
      </trkpt>
      <trkpt lat="45.67207" lon="4.47579">
        <ele>768.945129</ele>
        <time>2019-07-12T07:01:41Z</time>
      </trkpt>
      <trkpt lat="45.67244" lon="4.47684">
        <ele>770.02063</ele>
        <time>2019-07-12T07:01:47Z</time>
      </trkpt>
      <trkpt lat="45.67282" lon="4.47887">
        <ele>770.72998</ele>
        <time>2019-07-12T07:02:05Z</time>
      </trkpt>
      <trkpt lat="45.67274" lon="4.47976">
        <ele>772.311707</ele>
        <time>2019-07-12T07:02:15Z</time>
      </trkpt>
      <trkpt lat="45.67282" lon="4.48029">
        <ele>771.97699</ele>
        <time>2019-07-12T07:02:17Z</time>
      </trkpt>
      <trkpt lat="45.6729" lon="4.48037">
        <ele>772.704346</ele>
        <time>2019-07-12T07:02:58Z</time>
      </trkpt>
      <trkpt lat="45.67379" lon="4.48072">
        <ele>775.110535</ele>
        <time>2019-07-12T07:03:06Z</time>
      </trkpt>
      <trkpt lat="45.67415" lon="4.48099">
        <ele>772.750427</ele>
        <time>2019-07-12T07:03:29Z</time>
      </trkpt>
      <trkpt lat="45.67435" lon="4.48106">
        <ele>771.772827</ele>
        <time>2019-07-12T07:03:54Z</time>
      </trkpt>
      <trkpt lat="45.67584" lon="4.48098">
        <ele>757.275024</ele>
        <time>2019-07-12T07:04:15Z</time>
      </trkpt>
      <trkpt lat="45.67817" lon="4.48061">
        <ele>758.873718</ele>
        <time>2019-07-12T07:04:45Z</time>
      </trkpt>
      <trkpt lat="45.67842" lon="4.48044">
        <ele>762.441284</ele>
        <time>2019-07-12T07:04:53Z</time>
      </trkpt>
      <trkpt lat="45.67896" lon="4.47966">
        <ele>773.083801</ele>
        <time>2019-07-12T07:05:06Z</time>
      </trkpt>
      <trkpt lat="45.67923" lon="4.47917">
        <ele>777.318665</ele>
        <time>2019-07-12T07:06:21Z</time>
      </trkpt>
      <trkpt lat="45.67928" lon="4.47921">
        <ele>778.246155</ele>
        <time>2019-07-12T07:06:31Z</time>
      </trkpt>
      <trkpt lat="45.67951" lon="4.48172">
        <ele>783.248779</ele>
        <time>2019-07-12T07:07:20Z</time>
      </trkpt>
      <trkpt lat="45.67964" lon="4.48219">
        <ele>784.170532</ele>
        <time>2019-07-12T07:07:33Z</time>
      </trkpt>
      <trkpt lat="45.68017" lon="4.48332">
        <ele>788.465698</ele>
        <time>2019-07-12T07:07:35Z</time>
      </trkpt>
      <trkpt lat="45.68037" lon="4.48485">
        <ele>790.692505</ele>
        <time>2019-07-12T07:07:45Z</time>
      </trkpt>
      <trkpt lat="45.68074" lon="4.486">
        <ele>794.857788</ele>
        <time>2019-07-12T07:07:52Z</time>
      </trkpt>
      <trkpt lat="45.68148" lon="4.4875">
        <ele>797.744995</ele>
        <time>2019-07-12T07:07:55Z</time>
      </trkpt>
      <trkpt lat="45.68164" lon="4.48796">
        <ele>797.932495</ele>
        <time>2019-07-12T07:08:06Z</time>
      </trkpt>
      <trkpt lat="45.68178" lon="4.48875">
        <ele>798.710022</ele>
        <time>2019-07-12T07:08:27Z</time>
      </trkpt>
      <trkpt lat="45.68177" lon="4.49336">
        <ele>803.449829</ele>
        <time>2019-07-12T07:08:59Z</time>
      </trkpt>
      <trkpt lat="45.6818" lon="4.49396">
        <ele>803.413574</ele>
        <time>2019-07-12T07:09:16Z</time>
      </trkpt>
      <trkpt lat="45.6822" lon="4.4969">
        <ele>806.831787</ele>
        <time>2019-07-12T07:09:26Z</time>
      </trkpt>
      <trkpt lat="45.68237" lon="4.49762">
        <ele>808.498108</ele>
        <time>2019-07-12T07:09:53Z</time>
      </trkpt>
      <trkpt lat="45.68245" lon="4.49776">
        <ele>807.46106</ele>
        <time>2019-07-12T07:09:57Z</time>
      </trkpt>
      <trkpt lat="45.68247" lon="4.49834">
        <ele>817.284912</ele>
        <time>2019-07-12T07:10:09Z</time>
      </trkpt>
      <trkpt lat="45.68264" lon="4.49866">
        <ele>816.672119</ele>
        <time>2019-07-12T07:10:16Z</time>
      </trkpt>
      <trkpt lat="45.68268" lon="4.49884">
        <ele>818.400818</ele>
        <time>2019-07-12T07:10:41Z</time>
      </trkpt>
      <trkpt lat="45.68297" lon="4.49939">
        <ele>816.76593</ele>
        <time>2019-07-12T07:11:44Z</time>
      </trkpt>
      <trkpt lat="45.68335" lon="4.50058">
        <ele>819.822205</ele>
        <time>2019-07-12T07:11:54Z</time>
      </trkpt>
      <trkpt lat="45.68352" lon="4.50252">
        <ele>827.728699</ele>
        <time>2019-07-12T07:12:16Z</time>
      </trkpt>
      <trkpt lat="45.68342" lon="4.50354">
        <ele>832.547485</ele>
        <time>2019-07-12T07:12:42Z</time>
      </trkpt>
      <trkpt lat="45.68326" lon="4.50412">
        <ele>835.657593</ele>
        <time>2019-07-12T07:13:13Z</time>
      </trkpt>
      <trkpt lat="45.68272" lon="4.50557">
        <ele>854.272522</ele>
        <time>2019-07-12T07:13:53Z</time>
      </trkpt>
      <trkpt lat="45.68261" lon="4.50573">
        <ele>857.593262</ele>
        <time>2019-07-12T07:14:03Z</time>
      </trkpt>
      <trkpt lat="45.68243" lon="4.50642">
        <ele>861.25592</ele>
        <time>2019-07-12T07:14:21Z</time>
      </trkpt>
      <trkpt lat="45.6824" lon="4.50689">
        <ele>863.138611</ele>
        <time>2019-07-12T07:14:49Z</time>
      </trkpt>
      <trkpt lat="45.68254" lon="4.50842">
        <ele>869.526672</ele>
        <time>2019-07-12T07:15:05Z</time>
      </trkpt>
      <trkpt lat="45.68248" lon="4.51223">
        <ele>867.617493</ele>
        <time>2019-07-12T07:15:35Z</time>
      </trkpt>
      <trkpt lat="45.68234" lon="4.51285">
        <ele>865.837646</ele>
        <time>2019-07-12T07:15:55Z</time>
      </trkpt>
      <trkpt lat="45.68267" lon="4.51412">
        <ele>859.304138</ele>
        <time>2019-07-12T07:16:08Z</time>
      </trkpt>
      <trkpt lat="45.68283" lon="4.5157">
        <ele>855.8172</ele>
        <time>2019-07-12T07:16:20Z</time>
      </trkpt>
      <trkpt lat="45.68343" lon="4.51734">
        <ele>847.92981</ele>
        <time>2019-07-12T07:16:27Z</time>
      </trkpt>
      <trkpt lat="45.6836" lon="4.51982">
        <ele>841.03717</ele>
        <time>2019-07-12T07:16:59Z</time>
      </trkpt>
      <trkpt lat="45.68359" lon="4.52041">
        <ele>836.685852</ele>
        <time>2019-07-12T07:17:09Z</time>
      </trkpt>
      <trkpt lat="45.68374" lon="4.52152">
        <ele>830.053467</ele>
        <time>2019-07-12T07:17:28Z</time>
      </trkpt>
      <trkpt lat="45.68361" lon="4.5232">
        <ele>817.294983</ele>
        <time>2019-07-12T07:17:38Z</time>
      </trkpt>
      <trkpt lat="45.68387" lon="4.5241">
        <ele>813.434998</ele>
        <time>2019-07-12T07:18:28Z</time>
      </trkpt>
      <trkpt lat="45.68454" lon="4.52568">
        <ele>803.837524</ele>
        <time>2019-07-12T07:18:36Z</time>
      </trkpt>
      <trkpt lat="45.68445" lon="4.52689">
        <ele>799.125</ele>
        <time>2019-07-12T07:18:49Z</time>
      </trkpt>
      <trkpt lat="45.68446" lon="4.52773">
        <ele>798.042297</ele>
        <time>2019-07-12T07:18:59Z</time>
      </trkpt>
      <trkpt lat="45.68439" lon="4.5284">
        <ele>794.670532</ele>
        <time>2019-07-12T07:19:13Z</time>
      </trkpt>
      <trkpt lat="45.68451" lon="4.52879">
        <ele>792.977051</ele>
        <time>2019-07-12T07:20:15Z</time>
      </trkpt>
      <trkpt lat="45.68522" lon="4.53051">
        <ele>786.380005</ele>
        <time>2019-07-12T07:20:55Z</time>
      </trkpt>
      <trkpt lat="45.68548" lon="4.531">
        <ele>788.883423</ele>
        <time>2019-07-12T07:21:12Z</time>
      </trkpt>
      <trkpt lat="45.68588" lon="4.53197">
        <ele>792.694885</ele>
        <time>2019-07-12T07:21:21Z</time>
      </trkpt>
      <trkpt lat="45.68617" lon="4.53246">
        <ele>794.033752</ele>
        <time>2019-07-12T07:21:28Z</time>
      </trkpt>
      <trkpt lat="45.68778" lon="4.53448">
        <ele>787.829163</ele>
        <time>2019-07-12T07:21:40Z</time>
      </trkpt>
      <trkpt lat="45.68811" lon="4.5347">
        <ele>787.619385</ele>
        <time>2019-07-12T07:21:58Z</time>
      </trkpt>
      <trkpt lat="45.68863" lon="4.53488">
        <ele>786.57428</ele>
        <time>2019-07-12T07:22:03Z</time>
      </trkpt>
      <trkpt lat="45.68905" lon="4.53511">
        <ele>786.147095</ele>
        <time>2019-07-12T07:22:12Z</time>
      </trkpt>
      <trkpt lat="45.68955" lon="4.53554">
        <ele>782.457703</ele>
        <time>2019-07-12T07:22:21Z</time>
      </trkpt>
      <trkpt lat="45.69168" lon="4.53775">
        <ele>786.259583</ele>
        <time>2019-07-12T07:22:35Z</time>
      </trkpt>
      <trkpt lat="45.6934" lon="4.53771">
        <ele>778.234985</ele>
        <time>2019-07-12T07:22:43Z</time>
      </trkpt>
      <trkpt lat="45.69416" lon="4.53776">
        <ele>775.93927</ele>
        <time>2019-07-12T07:22:50Z</time>
      </trkpt>
      <trkpt lat="45.6945" lon="4.53763">
        <ele>772.766235</ele>
        <time>2019-07-12T07:23:05Z</time>
      </trkpt>
      <trkpt lat="45.69474" lon="4.53739">
        <ele>769.512451</ele>
        <time>2019-07-12T07:23:10Z</time>
      </trkpt>
      <trkpt lat="45.69509" lon="4.53685">
        <ele>764.623169</ele>
        <time>2019-07-12T07:23:26Z</time>
      </trkpt>
      <trkpt lat="45.6954" lon="4.53788">
        <ele>762.392212</ele>
        <time>2019-07-12T07:23:47Z</time>
      </trkpt>
      <trkpt lat="45.69556" lon="4.53811">
        <ele>760.981384</ele>
        <time>2019-07-12T07:24:11Z</time>
      </trkpt>
      <trkpt lat="45.69594" lon="4.53825">
        <ele>756.11499</ele>
        <time>2019-07-12T07:24:26Z</time>
      </trkpt>
      <trkpt lat="45.69625" lon="4.53849">
        <ele>752.551941</ele>
        <time>2019-07-12T07:24:37Z</time>
      </trkpt>
      <trkpt lat="45.69674" lon="4.53907">
        <ele>743.420349</ele>
        <time>2019-07-12T07:24:43Z</time>
      </trkpt>
      <trkpt lat="45.69693" lon="4.53944">
        <ele>739.209595</ele>
        <time>2019-07-12T07:25:01Z</time>
      </trkpt>
      <trkpt lat="45.69704" lon="4.53984">
        <ele>737.624084</ele>
        <time>2019-07-12T07:25:19Z</time>
      </trkpt>
      <trkpt lat="45.69761" lon="4.53945">
        <ele>736.150818</ele>
        <time>2019-07-12T07:25:42Z</time>
      </trkpt>
      <trkpt lat="45.6978" lon="4.53924">
        <ele>735.650574</ele>
        <time>2019-07-12T07:25:52Z</time>
      </trkpt>
      <trkpt lat="45.69842" lon="4.53886">
        <ele>739.115173</ele>
        <time>2019-07-12T07:26:04Z</time>
      </trkpt>
      <trkpt lat="45.6993" lon="4.53901">
        <ele>752.156555</ele>
        <time>2019-07-12T07:26:13Z</time>
      </trkpt>
      <trkpt lat="45.70029" lon="4.53946">
        <ele>766.204468</ele>
        <time>2019-07-12T07:26:55Z</time>
      </trkpt>
      <trkpt lat="45.70068" lon="4.54021">
        <ele>778.494995</ele>
        <time>2019-07-12T07:27:07Z</time>
      </trkpt>
      <trkpt lat="45.70104" lon="4.54063">
        <ele>784.101563</ele>
        <time>2019-07-12T07:27:34Z</time>
      </trkpt>
      <trkpt lat="45.70129" lon="4.54069">
        <ele>786.964355</ele>
        <time>2019-07-12T07:27:44Z</time>
      </trkpt>
      <trkpt lat="45.702" lon="4.54117">
        <ele>784.187988</ele>
        <time>2019-07-12T07:28:00Z</time>
      </trkpt>
      <trkpt lat="45.70254" lon="4.54191">
        <ele>773.262512</ele>
        <time>2019-07-12T07:28:13Z</time>
      </trkpt>
      <trkpt lat="45.70292" lon="4.5432">
        <ele>766.693542</ele>
        <time>2019-07-12T07:28:23Z</time>
      </trkpt>
      <trkpt lat="45.70324" lon="4.5436">
        <ele>769.118042</ele>
        <time>2019-07-12T07:28:30Z</time>
      </trkpt>
      <trkpt lat="45.70375" lon="4.54385">
        <ele>774.579529</ele>
        <time>2019-07-12T07:28:57Z</time>
      </trkpt>
      <trkpt lat="45.70413" lon="4.5438">
        <ele>782.140137</ele>
        <time>2019-07-12T07:29:04Z</time>
      </trkpt>
      <trkpt lat="45.70535" lon="4.54566">
        <ele>792.932495</ele>
        <time>2019-07-12T07:29:18Z</time>
      </trkpt>
      <trkpt lat="45.70565" lon="4.54629">
        <ele>795.259216</ele>
        <time>2019-07-12T07:29:51Z</time>
      </trkpt>
      <trkpt lat="45.70658" lon="4.54728">
        <ele>810.892883</ele>
        <time>2019-07-12T07:30:03Z</time>
      </trkpt>
      <trkpt lat="45.70698" lon="4.54744">
        <ele>814.095642</ele>
        <time>2019-07-12T07:30:11Z</time>
      </trkpt>
      <trkpt lat="45.70751" lon="4.54812">
        <ele>822.456604</ele>
        <time>2019-07-12T07:30:17Z</time>
      </trkpt>
      <trkpt lat="45.70777" lon="4.54879">
        <ele>828.759338</ele>
        <time>2019-07-12T07:30:45Z</time>
      </trkpt>
      <trkpt lat="45.70809" lon="4.54918">
        <ele>833.587524</ele>
        <time>2019-07-12T07:30:52Z</time>
      </trkpt>
      <trkpt lat="45.70838" lon="4.5494">
        <ele>838.969421</ele>
        <time>2019-07-12T07:31:00Z</time>
      </trkpt>
      <trkpt lat="45.70917" lon="4.55055">
        <ele>842.198608</ele>
        <time>2019-07-12T07:31:20Z</time>
      </trkpt>
      <trkpt lat="45.70942" lon="4.55081">
        <ele>842.36792</ele>
        <time>2019-07-12T07:31:31Z</time>
      </trkpt>
      <trkpt lat="45.70983" lon="4.55142">
        <ele>841.435669</ele>
        <time>2019-07-12T07:32:36Z</time>
      </trkpt>
      <trkpt lat="45.71063" lon="4.55308">
        <ele>850.664856</ele>
        <time>2019-07-12T07:32:48Z</time>
      </trkpt>
      <trkpt lat="45.71081" lon="4.55379">
        <ele>857.627441</ele>
        <time>2019-07-12T07:33:06Z</time>
      </trkpt>
      <trkpt lat="45.71084" lon="4.55427">
        <ele>860.506104</ele>
        <time>2019-07-12T07:33:11Z</time>
      </trkpt>
      <trkpt lat="45.71074" lon="4.55463">
        <ele>862.468567</ele>
        <time>2019-07-12T07:33:27Z</time>
      </trkpt>
      <trkpt lat="45.70969" lon="4.55549">
        <ele>873.846191</ele>
        <time>2019-07-12T07:33:41Z</time>
      </trkpt>
      <trkpt lat="45.70943" lon="4.55558">
        <ele>875.362061</ele>
        <time>2019-07-12T07:33:45Z</time>
      </trkpt>
      <trkpt lat="45.70913" lon="4.55587">
        <ele>879.608765</ele>
        <time>2019-07-12T07:34:01Z</time>
      </trkpt>
      <trkpt lat="45.70832" lon="4.55628">
        <ele>886.693726</ele>
        <time>2019-07-12T07:34:14Z</time>
      </trkpt>
      <trkpt lat="45.7079" lon="4.55661">
        <ele>889.927185</ele>
        <time>2019-07-12T07:34:40Z</time>
      </trkpt>
      <trkpt lat="45.70626" lon="4.55979">
        <ele>887.964111</ele>
        <time>2019-07-12T07:34:51Z</time>
      </trkpt>
      <trkpt lat="45.70584" lon="4.56028">
        <ele>884.374939</ele>
        <time>2019-07-12T07:35:01Z</time>
      </trkpt>
      <trkpt lat="45.70532" lon="4.56109">
        <ele>873.415222</ele>
        <time>2019-07-12T07:35:04Z</time>
      </trkpt>
      <trkpt lat="45.70515" lon="4.56125">
        <ele>871.967896</ele>
        <time>2019-07-12T07:35:21Z</time>
      </trkpt>
      <trkpt lat="45.70478" lon="4.56209">
        <ele>869.535828</ele>
        <time>2019-07-12T07:35:27Z</time>
      </trkpt>
      <trkpt lat="45.70428" lon="4.56255">
        <ele>868.586548</ele>
        <time>2019-07-12T07:35:34Z</time>
      </trkpt>
      <trkpt lat="45.70418" lon="4.56273">
        <ele>868.466064</ele>
        <time>2019-07-12T07:35:56Z</time>
      </trkpt>
      <trkpt lat="45.70416" lon="4.56371">
        <ele>872.614075</ele>
        <time>2019-07-12T07:36:06Z</time>
      </trkpt>
      <trkpt lat="45.7043" lon="4.56448">
        <ele>874.137024</ele>
        <time>2019-07-12T07:36:08Z</time>
      </trkpt>
      <trkpt lat="45.70436" lon="4.56606">
        <ele>877.834351</ele>
        <time>2019-07-12T07:36:16Z</time>
      </trkpt>
      <trkpt lat="45.70457" lon="4.56666">
        <ele>878.472473</ele>
        <time>2019-07-12T07:36:28Z</time>
      </trkpt>
      <trkpt lat="45.70483" lon="4.56715">
        <ele>878.45752</ele>
        <time>2019-07-12T07:36:40Z</time>
      </trkpt>
      <trkpt lat="45.70495" lon="4.5671">
        <ele>876.64502</ele>
        <time>2019-07-12T07:36:53Z</time>
      </trkpt>
      <trkpt lat="45.70548" lon="4.56635">
        <ele>863.065002</ele>
        <time>2019-07-12T07:37:01Z</time>
      </trkpt>
      <trkpt lat="45.70569" lon="4.56618">
        <ele>857.91156</ele>
        <time>2019-07-12T07:37:06Z</time>
      </trkpt>
      <trkpt lat="45.70598" lon="4.56612">
        <ele>852.082458</ele>
        <time>2019-07-12T07:37:20Z</time>
      </trkpt>
      <trkpt lat="45.70686" lon="4.56559">
        <ele>829.730042</ele>
        <time>2019-07-12T07:37:34Z</time>
      </trkpt>
      <trkpt lat="45.70716" lon="4.56517">
        <ele>820.046936</ele>
        <time>2019-07-12T07:38:05Z</time>
      </trkpt>
      <trkpt lat="45.70728" lon="4.56519">
        <ele>816.820984</ele>
        <time>2019-07-12T07:38:21Z</time>
      </trkpt>
      <trkpt lat="45.70747" lon="4.5656">
        <ele>811.93457</ele>
        <time>2019-07-12T07:38:47Z</time>
      </trkpt>
      <trkpt lat="45.70764" lon="4.56626">
        <ele>806.422485</ele>
        <time>2019-07-12T07:38:50Z</time>
      </trkpt>
      <trkpt lat="45.70794" lon="4.56689">
        <ele>800.64624</ele>
        <time>2019-07-12T07:38:54Z</time>
      </trkpt>
      <trkpt lat="45.70818" lon="4.56758">
        <ele>793.984985</ele>
        <time>2019-07-12T07:39:01Z</time>
      </trkpt>
      <trkpt lat="45.70844" lon="4.56791">
        <ele>787.372498</ele>
        <time>2019-07-12T07:39:09Z</time>
      </trkpt>
      <trkpt lat="45.70865" lon="4.56805">
        <ele>785.931335</ele>
        <time>2019-07-12T07:39:48Z</time>
      </trkpt>
      <trkpt lat="45.7092" lon="4.56823">
        <ele>786.665894</ele>
        <time>2019-07-12T07:39:53Z</time>
      </trkpt>
      <trkpt lat="45.70976" lon="4.56859">
        <ele>787.904785</ele>
        <time>2019-07-12T07:40:01Z</time>
      </trkpt>
      <trkpt lat="45.71087" lon="4.56959">
        <ele>787.421936</ele>
        <time>2019-07-12T07:40:09Z</time>
      </trkpt>
      <trkpt lat="45.71152" lon="4.57003">
        <ele>788.414978</ele>
        <time>2019-07-12T07:40:20Z</time>
      </trkpt>
      <trkpt lat="45.71232" lon="4.57106">
        <ele>784.467041</ele>
        <time>2019-07-12T07:40:33Z</time>
      </trkpt>
      <trkpt lat="45.71246" lon="4.57105">
        <ele>786.412537</ele>
        <time>2019-07-12T07:40:50Z</time>
      </trkpt>
      <trkpt lat="45.71246" lon="4.57078">
        <ele>790.152466</ele>
        <time>2019-07-12T07:40:58Z</time>
      </trkpt>
      <trkpt lat="45.7127" lon="4.57053">
        <ele>792.351501</ele>
        <time>2019-07-12T07:41:02Z</time>
      </trkpt>
      <trkpt lat="45.71267" lon="4.57007">
        <ele>796.508118</ele>
        <time>2019-07-12T07:41:05Z</time>
      </trkpt>
      <trkpt lat="45.71305" lon="4.56773">
        <ele>809.960876</ele>
        <time>2019-07-12T07:41:12Z</time>
      </trkpt>
      <trkpt lat="45.71319" lon="4.56747">
        <ele>812.168884</ele>
        <time>2019-07-12T07:41:24Z</time>
      </trkpt>
      <trkpt lat="45.71346" lon="4.56722">
        <ele>813.153992</ele>
        <time>2019-07-12T07:41:40Z</time>
      </trkpt>
      <trkpt lat="45.71381" lon="4.56704">
        <ele>809.2771</ele>
        <time>2019-07-12T07:42:06Z</time>
      </trkpt>
      <trkpt lat="45.71408" lon="4.56652">
        <ele>808.55658</ele>
        <time>2019-07-12T07:42:16Z</time>
      </trkpt>
      <trkpt lat="45.71414" lon="4.5657">
        <ele>811.498901</ele>
        <time>2019-07-12T07:42:21Z</time>
      </trkpt>
      <trkpt lat="45.71429" lon="4.56473">
        <ele>810.773865</ele>
        <time>2019-07-12T07:42:29Z</time>
      </trkpt>
      <trkpt lat="45.71427" lon="4.56419">
        <ele>814.469055</ele>
        <time>2019-07-12T07:42:38Z</time>
      </trkpt>
      <trkpt lat="45.71434" lon="4.56399">
        <ele>813.304626</ele>
        <time>2019-07-12T07:42:57Z</time>
      </trkpt>
      <trkpt lat="45.71446" lon="4.56403">
        <ele>811.509766</ele>
        <time>2019-07-12T07:43:07Z</time>
      </trkpt>
      <trkpt lat="45.71466" lon="4.56433">
        <ele>812.453735</ele>
        <time>2019-07-12T07:43:28Z</time>
      </trkpt>
      <trkpt lat="45.71491" lon="4.56501">
        <ele>813.630005</ele>
        <time>2019-07-12T07:43:53Z</time>
      </trkpt>
      <trkpt lat="45.71533" lon="4.56576">
        <ele>821.875244</ele>
        <time>2019-07-12T07:44:05Z</time>
      </trkpt>
      <trkpt lat="45.71613" lon="4.56691">
        <ele>840.226501</ele>
        <time>2019-07-12T07:44:10Z</time>
      </trkpt>
      <trkpt lat="45.71649" lon="4.56724">
        <ele>840.814453</ele>
        <time>2019-07-12T07:44:16Z</time>
      </trkpt>
      <trkpt lat="45.71671" lon="4.56723">
        <ele>839.123901</ele>
        <time>2019-07-12T07:44:37Z</time>
      </trkpt>
      <trkpt lat="45.71695" lon="4.56689">
        <ele>839.405884</ele>
        <time>2019-07-12T07:44:49Z</time>
      </trkpt>
      <trkpt lat="45.71732" lon="4.56672">
        <ele>840.064636</ele>
        <time>2019-07-12T07:45:16Z</time>
      </trkpt>
      <trkpt lat="45.71813" lon="4.56673">
        <ele>839.16748</ele>
        <time>2019-07-12T07:45:40Z</time>
      </trkpt>
      <trkpt lat="45.71854" lon="4.56684">
        <ele>836.714111</ele>
        <time>2019-07-12T07:45:44Z</time>
      </trkpt>
      <trkpt lat="45.71929" lon="4.56753">
        <ele>820.4375</ele>
        <time>2019-07-12T07:46:04Z</time>
      </trkpt>
      <trkpt lat="45.72037" lon="4.56746">
        <ele>811.836365</ele>
        <time>2019-07-12T07:46:19Z</time>
      </trkpt>
      <trkpt lat="45.7207" lon="4.56804">
        <ele>804.077576</ele>
        <time>2019-07-12T07:46:32Z</time>
      </trkpt>
      <trkpt lat="45.72088" lon="4.56816">
        <ele>803.117798</ele>
        <time>2019-07-12T07:46:47Z</time>
      </trkpt>
      <trkpt lat="45.72095" lon="4.56852">
        <ele>804.39447</ele>
        <time>2019-07-12T07:47:02Z</time>
      </trkpt>
      <trkpt lat="45.72086" lon="4.56982">
        <ele>801.41217</ele>
        <time>2019-07-12T07:47:20Z</time>
      </trkpt>
      <trkpt lat="45.7209" lon="4.57055">
        <ele>801.940002</ele>
        <time>2019-07-12T07:47:33Z</time>
      </trkpt>
      <trkpt lat="45.72074" lon="4.57214">
        <ele>804.78009</ele>
        <time>2019-07-12T07:47:48Z</time>
      </trkpt>
      <trkpt lat="45.72039" lon="4.57357">
        <ele>809.617493</ele>
        <time>2019-07-12T07:47:52Z</time>
      </trkpt>
      <trkpt lat="45.72044" lon="4.5738">
        <ele>811.164124</ele>
        <time>2019-07-12T07:47:58Z</time>
      </trkpt>
      <trkpt lat="45.72088" lon="4.57481">
        <ele>822.310791</ele>
        <time>2019-07-12T07:48:19Z</time>
      </trkpt>
      <trkpt lat="45.72112" lon="4.5757">
        <ele>826.708801</ele>
        <time>2019-07-12T07:48:36Z</time>
      </trkpt>
      <trkpt lat="45.72126" lon="4.57646">
        <ele>829.96167</ele>
        <time>2019-07-12T07:49:06Z</time>
      </trkpt>
      <trkpt lat="45.72152" lon="4.5773">
        <ele>836.887756</ele>
        <time>2019-07-12T07:49:19Z</time>
      </trkpt>
      <trkpt lat="45.72186" lon="4.57806">
        <ele>845.697571</ele>
        <time>2019-07-12T07:49:55Z</time>
      </trkpt>
      <trkpt lat="45.72241" lon="4.57887">
        <ele>852.73999</ele>
        <time>2019-07-12T07:50:01Z</time>
      </trkpt>
      <trkpt lat="45.72274" lon="4.57952">
        <ele>847.474365</ele>
        <time>2019-07-12T07:50:12Z</time>
      </trkpt>
      <trkpt lat="45.72299" lon="4.58037">
        <ele>838.218506</ele>
        <time>2019-07-12T07:50:24Z</time>
      </trkpt>
      <trkpt lat="45.72311" lon="4.58051">
        <ele>835.052551</ele>
        <time>2019-07-12T07:51:04Z</time>
      </trkpt>
      <trkpt lat="45.72321" lon="4.58085">
        <ele>829.847412</ele>
        <time>2019-07-12T07:51:11Z</time>
      </trkpt>
      <trkpt lat="45.72333" lon="4.58213">
        <ele>821.443726</ele>
        <time>2019-07-12T07:51:31Z</time>
      </trkpt>
      <trkpt lat="45.72354" lon="4.58316">
        <ele>815.69342</ele>
        <time>2019-07-12T07:51:36Z</time>
      </trkpt>
      <trkpt lat="45.72375" lon="4.58496">
        <ele>819.043091</ele>
        <time>2019-07-12T07:52:44Z</time>
      </trkpt>
      <trkpt lat="45.72392" lon="4.58571">
        <ele>820.064209</ele>
        <time>2019-07-12T07:53:01Z</time>
      </trkpt>
      <trkpt lat="45.72463" lon="4.58769">
        <ele>820.981445</ele>
        <time>2019-07-12T07:53:54Z</time>
      </trkpt>
      <trkpt lat="45.72468" lon="4.58804">
        <ele>820.327515</ele>
        <time>2019-07-12T07:54:14Z</time>
      </trkpt>
      <trkpt lat="45.7246" lon="4.5887">
        <ele>817.73999</ele>
        <time>2019-07-12T07:54:25Z</time>
      </trkpt>
      <trkpt lat="45.72433" lon="4.58936">
        <ele>814.172729</ele>
        <time>2019-07-12T07:55:12Z</time>
      </trkpt>
      <trkpt lat="45.72321" lon="4.59116">
        <ele>820.119568</ele>
        <time>2019-07-12T07:55:21Z</time>
      </trkpt>
      <trkpt lat="45.72309" lon="4.59157">
        <ele>821.016113</ele>
        <time>2019-07-12T07:55:38Z</time>
      </trkpt>
      <trkpt lat="45.72288" lon="4.59278">
        <ele>825.78479</ele>
        <time>2019-07-12T07:55:43Z</time>
      </trkpt>
      <trkpt lat="45.72275" lon="4.59297">
        <ele>826.258789</ele>
        <time>2019-07-12T07:55:50Z</time>
      </trkpt>
      <trkpt lat="45.72076" lon="4.58992">
        <ele>834.637207</ele>
        <time>2019-07-12T07:56:09Z</time>
      </trkpt>
      <trkpt lat="45.72036" lon="4.58902">
        <ele>837.326233</ele>
        <time>2019-07-12T07:56:25Z</time>
      </trkpt>
      <trkpt lat="45.71879" lon="4.58671">
        <ele>827.02002</ele>
        <time>2019-07-12T07:56:42Z</time>
      </trkpt>
      <trkpt lat="45.71813" lon="4.58593">
        <ele>815.554993</ele>
        <time>2019-07-12T07:56:46Z</time>
      </trkpt>
      <trkpt lat="45.71768" lon="4.58568">
        <ele>809.690002</ele>
        <time>2019-07-12T07:56:49Z</time>
      </trkpt>
      <trkpt lat="45.71589" lon="4.58432">
        <ele>826.01825</ele>
        <time>2019-07-12T07:56:54Z</time>
      </trkpt>
      <trkpt lat="45.7156" lon="4.58401">
        <ele>829.832764</ele>
        <time>2019-07-12T07:56:55Z</time>
      </trkpt>
      <trkpt lat="45.71494" lon="4.58353">
        <ele>840.389954</ele>
        <time>2019-07-12T07:56:59Z</time>
      </trkpt>
      <trkpt lat="45.71472" lon="4.58349">
        <ele>841.930725</ele>
        <time>2019-07-12T07:57:01Z</time>
      </trkpt>
      <trkpt lat="45.71461" lon="4.5839">
        <ele>844.709473</ele>
        <time>2019-07-12T07:57:05Z</time>
      </trkpt>
      <trkpt lat="45.71406" lon="4.58474">
        <ele>846.784973</ele>
        <time>2019-07-12T07:57:15Z</time>
      </trkpt>
      <trkpt lat="45.71355" lon="4.58536">
        <ele>845.561768</ele>
        <time>2019-07-12T07:57:24Z</time>
      </trkpt>
      <trkpt lat="45.71288" lon="4.58576">
        <ele>844.213501</ele>
        <time>2019-07-12T07:57:26Z</time>
      </trkpt>
      <trkpt lat="45.71274" lon="4.58596">
        <ele>842.782715</ele>
        <time>2019-07-12T07:57:29Z</time>
      </trkpt>
      <trkpt lat="45.71271" lon="4.58612">
        <ele>842.288879</ele>
        <time>2019-07-12T07:57:32Z</time>
      </trkpt>
      <trkpt lat="45.71285" lon="4.58633">
        <ele>839.634521</ele>
        <time>2019-07-12T07:57:37Z</time>
      </trkpt>
      <trkpt lat="45.71282" lon="4.58642">
        <ele>837.963074</ele>
        <time>2019-07-12T07:57:40Z</time>
      </trkpt>
      <trkpt lat="45.71289" lon="4.58661">
        <ele>834.277893</ele>
        <time>2019-07-12T07:57:45Z</time>
      </trkpt>
      <trkpt lat="45.71281" lon="4.58668">
        <ele>833.247314</ele>
        <time>2019-07-12T07:57:52Z</time>
      </trkpt>
      <trkpt lat="45.71285" lon="4.5869">
        <ele>828.431213</ele>
        <time>2019-07-12T07:57:54Z</time>
      </trkpt>
      <trkpt lat="45.71242" lon="4.58711">
        <ele>821.270813</ele>
        <time>2019-07-12T07:58:00Z</time>
      </trkpt>
      <trkpt lat="45.7122" lon="4.58751">
        <ele>812.005859</ele>
        <time>2019-07-12T07:58:08Z</time>
      </trkpt>
      <trkpt lat="45.7122" lon="4.58768">
        <ele>808.906006</ele>
        <time>2019-07-12T07:58:11Z</time>
      </trkpt>
      <trkpt lat="45.7121" lon="4.58779">
        <ele>806.119141</ele>
        <time>2019-07-12T07:58:21Z</time>
      </trkpt>
      <trkpt lat="45.71209" lon="4.58792">
        <ele>803.987732</ele>
        <time>2019-07-12T07:58:27Z</time>
      </trkpt>
      <trkpt lat="45.71194" lon="4.5882">
        <ele>797.682739</ele>
        <time>2019-07-12T07:58:29Z</time>
      </trkpt>
      <trkpt lat="45.71183" lon="4.58828">
        <ele>795.573669</ele>
        <time>2019-07-12T07:58:45Z</time>
      </trkpt>
      <trkpt lat="45.71162" lon="4.58818">
        <ele>795.732605</ele>
        <time>2019-07-12T07:59:00Z</time>
      </trkpt>
      <trkpt lat="45.71153" lon="4.58854">
        <ele>789.430847</ele>
        <time>2019-07-12T07:59:10Z</time>
      </trkpt>
      <trkpt lat="45.71155" lon="4.58871">
        <ele>787.051941</ele>
        <time>2019-07-12T07:59:21Z</time>
      </trkpt>
      <trkpt lat="45.71131" lon="4.58875">
        <ele>785.136108</ele>
        <time>2019-07-12T07:59:40Z</time>
      </trkpt>
      <trkpt lat="45.71101" lon="4.58851">
        <ele>782.224976</ele>
        <time>2019-07-12T07:59:42Z</time>
      </trkpt>
      <trkpt lat="45.71094" lon="4.58862">
        <ele>779.849976</ele>
        <time>2019-07-12T08:00:14Z</time>
      </trkpt>
      <trkpt lat="45.71077" lon="4.58922">
        <ele>767.224365</ele>
        <time>2019-07-12T08:00:17Z</time>
      </trkpt>
      <trkpt lat="45.71091" lon="4.58953">
        <ele>763.95752</ele>
        <time>2019-07-12T08:00:21Z</time>
      </trkpt>
      <trkpt lat="45.71085" lon="4.58957">
        <ele>761.89209</ele>
        <time>2019-07-12T08:00:24Z</time>
      </trkpt>
      <trkpt lat="45.71033" lon="4.58889">
        <ele>756.585327</ele>
        <time>2019-07-12T08:00:26Z</time>
      </trkpt>
      <trkpt lat="45.71081" lon="4.58952">
        <ele>762.154846</ele>
        <time>2019-07-12T08:00:32Z</time>
      </trkpt>
      <trkpt lat="45.71122" lon="4.58972">
        <ele>765.664978</ele>
        <time>2019-07-12T08:00:46Z</time>
      </trkpt>
      <trkpt lat="45.71167" lon="4.58962">
        <ele>766.373901</ele>
        <time>2019-07-12T08:00:55Z</time>
      </trkpt>
      <trkpt lat="45.71243" lon="4.58918">
        <ele>768.88916</ele>
        <time>2019-07-12T08:01:10Z</time>
      </trkpt>
      <trkpt lat="45.71246" lon="4.58926">
        <ele>766.102539</ele>
        <time>2019-07-12T08:01:30Z</time>
      </trkpt>
      <trkpt lat="45.71129" lon="4.5903">
        <ele>748.706238</ele>
        <time>2019-07-12T08:01:32Z</time>
      </trkpt>
      <trkpt lat="45.71117" lon="4.59033">
        <ele>747.383057</ele>
        <time>2019-07-12T08:01:44Z</time>
      </trkpt>
      <trkpt lat="45.71101" lon="4.5902">
        <ele>748.275085</ele>
        <time>2019-07-12T08:01:51Z</time>
      </trkpt>
      <trkpt lat="45.71089" lon="4.59026">
        <ele>743.709656</ele>
        <time>2019-07-12T08:01:54Z</time>
      </trkpt>
      <trkpt lat="45.71095" lon="4.59018">
        <ele>747.722717</ele>
        <time>2019-07-12T08:01:57Z</time>
      </trkpt>
      <trkpt lat="45.71073" lon="4.59">
        <ele>749.048645</ele>
        <time>2019-07-12T08:02:01Z</time>
      </trkpt>
      <trkpt lat="45.71029" lon="4.5894">
        <ele>747.077332</ele>
        <time>2019-07-12T08:02:23Z</time>
      </trkpt>
      <trkpt lat="45.71005" lon="4.58893">
        <ele>745.934998</ele>
        <time>2019-07-12T08:02:43Z</time>
      </trkpt>
      <trkpt lat="45.70985" lon="4.58806">
        <ele>744.932495</ele>
        <time>2019-07-12T08:02:52Z</time>
      </trkpt>
      <trkpt lat="45.70977" lon="4.58685">
        <ele>741.923767</ele>
        <time>2019-07-12T08:03:19Z</time>
      </trkpt>
      <trkpt lat="45.7097" lon="4.58678">
        <ele>739.299988</ele>
        <time>2019-07-12T08:03:23Z</time>
      </trkpt>
      <trkpt lat="45.70945" lon="4.58742">
        <ele>731.507629</ele>
        <time>2019-07-12T08:03:49Z</time>
      </trkpt>
      <trkpt lat="45.70922" lon="4.58772">
        <ele>725.39386</ele>
        <time>2019-07-12T08:03:54Z</time>
      </trkpt>
      <trkpt lat="45.70909" lon="4.5877">
        <ele>722.414551</ele>
        <time>2019-07-12T08:04:01Z</time>
      </trkpt>
      <trkpt lat="45.709" lon="4.58757">
        <ele>720.446228</ele>
        <time>2019-07-12T08:04:17Z</time>
      </trkpt>
      <trkpt lat="45.70896" lon="4.58733">
        <ele>719.41748</ele>
        <time>2019-07-12T08:04:27Z</time>
      </trkpt>
      <trkpt lat="45.70894" lon="4.58599">
        <ele>715.601624</ele>
        <time>2019-07-12T08:04:33Z</time>
      </trkpt>
      <trkpt lat="45.70859" lon="4.58492">
        <ele>706.47998</ele>
        <time>2019-07-12T08:04:48Z</time>
      </trkpt>
      <trkpt lat="45.70866" lon="4.58433">
        <ele>707.256042</ele>
        <time>2019-07-12T08:04:54Z</time>
      </trkpt>
      <trkpt lat="45.709" lon="4.58277">
        <ele>710.586975</ele>
        <time>2019-07-12T08:05:23Z</time>
      </trkpt>
      <trkpt lat="45.70897" lon="4.58256">
        <ele>708.963867</ele>
        <time>2019-07-12T08:05:37Z</time>
      </trkpt>
      <trkpt lat="45.70789" lon="4.58208">
        <ele>707.707336</ele>
        <time>2019-07-12T08:06:06Z</time>
      </trkpt>
      <trkpt lat="45.70768" lon="4.58208">
        <ele>712.199585</ele>
        <time>2019-07-12T08:06:33Z</time>
      </trkpt>
      <trkpt lat="45.70752" lon="4.58245">
        <ele>713.936035</ele>
        <time>2019-07-12T08:06:58Z</time>
      </trkpt>
      <trkpt lat="45.7073" lon="4.5834">
        <ele>713.664978</ele>
        <time>2019-07-12T08:07:12Z</time>
      </trkpt>
      <trkpt lat="45.70726" lon="4.58399">
        <ele>712.476135</ele>
        <time>2019-07-12T08:07:16Z</time>
      </trkpt>
      <trkpt lat="45.70718" lon="4.58435">
        <ele>713.873047</ele>
        <time>2019-07-12T08:07:35Z</time>
      </trkpt>
      <trkpt lat="45.70681" lon="4.5851">
        <ele>720.878662</ele>
        <time>2019-07-12T08:08:06Z</time>
      </trkpt>
      <trkpt lat="45.70669" lon="4.58481">
        <ele>720.929443</ele>
        <time>2019-07-12T08:08:15Z</time>
      </trkpt>
      <trkpt lat="45.70695" lon="4.58302">
        <ele>725.369995</ele>
        <time>2019-07-12T08:08:34Z</time>
      </trkpt>
      <trkpt lat="45.70692" lon="4.58219">
        <ele>730.960022</ele>
        <time>2019-07-12T08:08:47Z</time>
      </trkpt>
      <trkpt lat="45.70649" lon="4.58053">
        <ele>742.616577</ele>
        <time>2019-07-12T08:08:58Z</time>
      </trkpt>
      <trkpt lat="45.70585" lon="4.57917">
        <ele>755.050232</ele>
        <time>2019-07-12T08:09:03Z</time>
      </trkpt>
      <trkpt lat="45.70515" lon="4.57795">
        <ele>766.990356</ele>
        <time>2019-07-12T08:09:10Z</time>
      </trkpt>
      <trkpt lat="45.70483" lon="4.57727">
        <ele>769.672729</ele>
        <time>2019-07-12T08:09:16Z</time>
      </trkpt>
      <trkpt lat="45.70469" lon="4.5771">
        <ele>771.866211</ele>
        <time>2019-07-12T08:09:29Z</time>
      </trkpt>
      <trkpt lat="45.70389" lon="4.57695">
        <ele>775.088135</ele>
        <time>2019-07-12T08:10:03Z</time>
      </trkpt>
      <trkpt lat="45.70292" lon="4.57564">
        <ele>767.578125</ele>
        <time>2019-07-12T08:10:22Z</time>
      </trkpt>
      <trkpt lat="45.70274" lon="4.57518">
        <ele>764.688904</ele>
        <time>2019-07-12T08:10:24Z</time>
      </trkpt>
      <trkpt lat="45.70254" lon="4.574">
        <ele>758.592163</ele>
        <time>2019-07-12T08:10:43Z</time>
      </trkpt>
      <trkpt lat="45.70247" lon="4.57324">
        <ele>757.021973</ele>
        <time>2019-07-12T08:10:55Z</time>
      </trkpt>
      <trkpt lat="45.70232" lon="4.57258">
        <ele>751.023743</ele>
        <time>2019-07-12T08:11:08Z</time>
      </trkpt>
      <trkpt lat="45.70233" lon="4.5723">
        <ele>752.57251</ele>
        <time>2019-07-12T08:11:18Z</time>
      </trkpt>
      <trkpt lat="45.70244" lon="4.57188">
        <ele>759.956238</ele>
        <time>2019-07-12T08:11:25Z</time>
      </trkpt>
      <trkpt lat="45.70247" lon="4.57149">
        <ele>763.190002</ele>
        <time>2019-07-12T08:11:39Z</time>
      </trkpt>
      <trkpt lat="45.7024" lon="4.5707">
        <ele>764.582581</ele>
        <time>2019-07-12T08:11:51Z</time>
      </trkpt>
      <trkpt lat="45.70192" lon="4.56875">
        <ele>774.76239</ele>
        <time>2019-07-12T08:12:19Z</time>
      </trkpt>
      <trkpt lat="45.70133" lon="4.56797">
        <ele>783.981201</ele>
        <time>2019-07-12T08:12:44Z</time>
      </trkpt>
      <trkpt lat="45.70125" lon="4.56804">
        <ele>783.239014</ele>
        <time>2019-07-12T08:12:59Z</time>
      </trkpt>
      <trkpt lat="45.70086" lon="4.56905">
        <ele>772.562927</ele>
        <time>2019-07-12T08:13:11Z</time>
      </trkpt>
      <trkpt lat="45.70049" lon="4.5696">
        <ele>770.763977</ele>
        <time>2019-07-12T08:13:22Z</time>
      </trkpt>
      <trkpt lat="45.69998" lon="4.56986">
        <ele>777.361511</ele>
        <time>2019-07-12T08:13:26Z</time>
      </trkpt>
      <trkpt lat="45.70016" lon="4.56929">
        <ele>789.516235</ele>
        <time>2019-07-12T08:13:37Z</time>
      </trkpt>
      <trkpt lat="45.70022" lon="4.56891">
        <ele>798.13385</ele>
        <time>2019-07-12T08:13:44Z</time>
      </trkpt>
      <trkpt lat="45.70016" lon="4.56805">
        <ele>818.952515</ele>
        <time>2019-07-12T08:13:57Z</time>
      </trkpt>
      <trkpt lat="45.6998" lon="4.5686">
        <ele>820.841248</ele>
        <time>2019-07-12T08:14:06Z</time>
      </trkpt>
      <trkpt lat="45.69874" lon="4.56947">
        <ele>833.37146</ele>
        <time>2019-07-12T08:14:14Z</time>
      </trkpt>
      <trkpt lat="45.69796" lon="4.57043">
        <ele>833.088684</ele>
        <time>2019-07-12T08:14:38Z</time>
      </trkpt>
      <trkpt lat="45.69752" lon="4.57113">
        <ele>829.430359</ele>
        <time>2019-07-12T08:15:17Z</time>
      </trkpt>
      <trkpt lat="45.69701" lon="4.57134">
        <ele>839.328125</ele>
        <time>2019-07-12T08:15:21Z</time>
      </trkpt>
      <trkpt lat="45.69658" lon="4.5712">
        <ele>848.922668</ele>
        <time>2019-07-12T08:15:28Z</time>
      </trkpt>
      <trkpt lat="45.69668" lon="4.57095">
        <ele>852.069092</ele>
        <time>2019-07-12T08:15:40Z</time>
      </trkpt>
      <trkpt lat="45.69663" lon="4.57027">
        <ele>861.313171</ele>
        <time>2019-07-12T08:15:50Z</time>
      </trkpt>
      <trkpt lat="45.69668" lon="4.56987">
        <ele>867.096558</ele>
        <time>2019-07-12T08:16:10Z</time>
      </trkpt>
      <trkpt lat="45.69643" lon="4.56915">
        <ele>873.715576</ele>
        <time>2019-07-12T08:16:15Z</time>
      </trkpt>
      <trkpt lat="45.69617" lon="4.56875">
        <ele>872.503296</ele>
        <time>2019-07-12T08:16:37Z</time>
      </trkpt>
      <trkpt lat="45.69599" lon="4.56832">
        <ele>872.281067</ele>
        <time>2019-07-12T08:16:43Z</time>
      </trkpt>
      <trkpt lat="45.69561" lon="4.567">
        <ele>870.099121</ele>
        <time>2019-07-12T08:17:01Z</time>
      </trkpt>
      <trkpt lat="45.69456" lon="4.56512">
        <ele>849.224976</ele>
        <time>2019-07-12T08:17:07Z</time>
      </trkpt>
      <trkpt lat="45.69442" lon="4.56498">
        <ele>849.107483</ele>
        <time>2019-07-12T08:17:15Z</time>
      </trkpt>
      <trkpt lat="45.69438" lon="4.56452">
        <ele>848.362</ele>
        <time>2019-07-12T08:17:42Z</time>
      </trkpt>
      <trkpt lat="45.69444" lon="4.56382">
        <ele>843.98877</ele>
        <time>2019-07-12T08:17:55Z</time>
      </trkpt>
      <trkpt lat="45.69465" lon="4.56327">
        <ele>837.912537</ele>
        <time>2019-07-12T08:18:04Z</time>
      </trkpt>
      <trkpt lat="45.69523" lon="4.56237">
        <ele>824.143311</ele>
        <time>2019-07-12T08:18:25Z</time>
      </trkpt>
      <trkpt lat="45.69532" lon="4.56213">
        <ele>819.796814</ele>
        <time>2019-07-12T08:18:30Z</time>
      </trkpt>
      <trkpt lat="45.69444" lon="4.56154">
        <ele>812.072815</ele>
        <time>2019-07-12T08:18:36Z</time>
      </trkpt>
      <trkpt lat="45.69423" lon="4.56132">
        <ele>810.684753</ele>
        <time>2019-07-12T08:18:49Z</time>
      </trkpt>
      <trkpt lat="45.6938" lon="4.56044">
        <ele>801.633789</ele>
        <time>2019-07-12T08:19:17Z</time>
      </trkpt>
      <trkpt lat="45.69359" lon="4.56024">
        <ele>798.919983</ele>
        <time>2019-07-12T08:19:21Z</time>
      </trkpt>
      <trkpt lat="45.69326" lon="4.56008">
        <ele>796.149475</ele>
        <time>2019-07-12T08:19:29Z</time>
      </trkpt>
      <trkpt lat="45.69214" lon="4.56047">
        <ele>783.908997</ele>
        <time>2019-07-12T08:20:00Z</time>
      </trkpt>
      <trkpt lat="45.69163" lon="4.56084">
        <ele>777.275452</ele>
        <time>2019-07-12T08:20:36Z</time>
      </trkpt>
      <trkpt lat="45.69126" lon="4.56099">
        <ele>771.914185</ele>
        <time>2019-07-12T08:20:43Z</time>
      </trkpt>
      <trkpt lat="45.69038" lon="4.56109">
        <ele>761.960022</ele>
        <time>2019-07-12T08:20:54Z</time>
      </trkpt>
      <trkpt lat="45.69016" lon="4.56104">
        <ele>758.508362</ele>
        <time>2019-07-12T08:21:02Z</time>
      </trkpt>
      <trkpt lat="45.68994" lon="4.56084">
        <ele>754.987732</ele>
        <time>2019-07-12T08:21:10Z</time>
      </trkpt>
      <trkpt lat="45.68939" lon="4.56059">
        <ele>753.993774</ele>
        <time>2019-07-12T08:21:26Z</time>
      </trkpt>
      <trkpt lat="45.68821" lon="4.56051">
        <ele>745.667786</ele>
        <time>2019-07-12T08:21:44Z</time>
      </trkpt>
      <trkpt lat="45.68808" lon="4.56035">
        <ele>742.874023</ele>
        <time>2019-07-12T08:22:10Z</time>
      </trkpt>
      <trkpt lat="45.68801" lon="4.55986">
        <ele>739.96228</ele>
        <time>2019-07-12T08:22:13Z</time>
      </trkpt>
      <trkpt lat="45.68791" lon="4.55799">
        <ele>730.496094</ele>
        <time>2019-07-12T08:22:27Z</time>
      </trkpt>
      <trkpt lat="45.68795" lon="4.5558">
        <ele>720.940857</ele>
        <time>2019-07-12T08:22:34Z</time>
      </trkpt>
      <trkpt lat="45.68802" lon="4.55533">
        <ele>716.787781</ele>
        <time>2019-07-12T08:22:37Z</time>
      </trkpt>
      <trkpt lat="45.68826" lon="4.5548">
        <ele>712.84137</ele>
        <time>2019-07-12T08:22:59Z</time>
      </trkpt>
      <trkpt lat="45.68838" lon="4.55432">
        <ele>706.84967</ele>
        <time>2019-07-12T08:23:24Z</time>
      </trkpt>
      <trkpt lat="45.68842" lon="4.55385">
        <ele>698.873718</ele>
        <time>2019-07-12T08:24:05Z</time>
      </trkpt>
      <trkpt lat="45.68877" lon="4.55297">
        <ele>693.016846</ele>
        <time>2019-07-12T08:24:32Z</time>
      </trkpt>
      <trkpt lat="45.68951" lon="4.55316">
        <ele>701.15094</ele>
        <time>2019-07-12T08:24:52Z</time>
      </trkpt>
      <trkpt lat="45.69034" lon="4.5521">
        <ele>719.342529</ele>
        <time>2019-07-12T08:25:22Z</time>
      </trkpt>
      <trkpt lat="45.6904" lon="4.55192">
        <ele>722.237366</ele>
        <time>2019-07-12T08:25:57Z</time>
      </trkpt>
      <trkpt lat="45.69029" lon="4.55105">
        <ele>729.996277</ele>
        <time>2019-07-12T08:26:17Z</time>
      </trkpt>
      <trkpt lat="45.69033" lon="4.55068">
        <ele>733.391174</ele>
        <time>2019-07-12T08:26:33Z</time>
      </trkpt>
      <trkpt lat="45.69042" lon="4.55052">
        <ele>735.462219</ele>
        <time>2019-07-12T08:26:52Z</time>
      </trkpt>
      <trkpt lat="45.69123" lon="4.54978">
        <ele>749.30365</ele>
        <time>2019-07-12T08:27:02Z</time>
      </trkpt>
      <trkpt lat="45.69095" lon="4.54831">
        <ele>758.344971</ele>
        <time>2019-07-12T08:27:07Z</time>
      </trkpt>
      <trkpt lat="45.69072" lon="4.54585">
        <ele>764.719971</ele>
        <time>2019-07-12T08:27:18Z</time>
      </trkpt>
      <trkpt lat="45.69035" lon="4.54428">
        <ele>767.717346</ele>
        <time>2019-07-12T08:27:46Z</time>
      </trkpt>
      <trkpt lat="45.69037" lon="4.54304">
        <ele>771.65625</ele>
        <time>2019-07-12T08:27:55Z</time>
      </trkpt>
      <trkpt lat="45.69075" lon="4.54126">
        <ele>777.289978</ele>
        <time>2019-07-12T08:28:42Z</time>
      </trkpt>
      <trkpt lat="45.69066" lon="4.53913">
        <ele>779.508911</ele>
        <time>2019-07-12T08:28:47Z</time>
      </trkpt>
      <trkpt lat="45.69022" lon="4.53808">
        <ele>778.200134</ele>
        <time>2019-07-12T08:28:52Z</time>
      </trkpt>
      <trkpt lat="45.6898" lon="4.53731">
        <ele>779.808838</ele>
        <time>2019-07-12T08:28:58Z</time>
      </trkpt>
      <trkpt lat="45.6894" lon="4.53633">
        <ele>784.625488</ele>
        <time>2019-07-12T08:29:02Z</time>
      </trkpt>
      <trkpt lat="45.68944" lon="4.5357">
        <ele>783.981201</ele>
        <time>2019-07-12T08:29:06Z</time>
      </trkpt>
      <trkpt lat="45.68939" lon="4.53538">
        <ele>783.285767</ele>
        <time>2019-07-12T08:29:14Z</time>
      </trkpt>
      <trkpt lat="45.68901" lon="4.53504">
        <ele>785.800598</ele>
        <time>2019-07-12T08:29:19Z</time>
      </trkpt>
      <trkpt lat="45.68787" lon="4.53452">
        <ele>787.231323</ele>
        <time>2019-07-12T08:29:38Z</time>
      </trkpt>
      <trkpt lat="45.68754" lon="4.53421">
        <ele>788.275146</ele>
        <time>2019-07-12T08:29:57Z</time>
      </trkpt>
      <trkpt lat="45.68603" lon="4.53227">
        <ele>793.621887</ele>
        <time>2019-07-12T08:30:20Z</time>
      </trkpt>
      <trkpt lat="45.68581" lon="4.53221">
        <ele>793.339172</ele>
        <time>2019-07-12T08:30:35Z</time>
      </trkpt>
      <trkpt lat="45.68564" lon="4.53229">
        <ele>793.602478</ele>
        <time>2019-07-12T08:30:47Z</time>
      </trkpt>
      <trkpt lat="45.68561" lon="4.53269">
        <ele>794.42627</ele>
        <time>2019-07-12T08:30:54Z</time>
      </trkpt>
      <trkpt lat="45.68547" lon="4.5328">
        <ele>794.606262</ele>
        <time>2019-07-12T08:31:05Z</time>
      </trkpt>
      <trkpt lat="45.6853" lon="4.5327">
        <ele>794.276245</ele>
        <time>2019-07-12T08:31:25Z</time>
      </trkpt>
      <trkpt lat="45.68526" lon="4.53221">
        <ele>793.057983</ele>
        <time>2019-07-12T08:31:51Z</time>
      </trkpt>
      <trkpt lat="45.68511" lon="4.53202">
        <ele>792.057007</ele>
        <time>2019-07-12T08:32:03Z</time>
      </trkpt>
      <trkpt lat="45.6843" lon="4.5321">
        <ele>787.948364</ele>
        <time>2019-07-12T08:32:28Z</time>
      </trkpt>
      <trkpt lat="45.68347" lon="4.53199">
        <ele>779.468445</ele>
        <time>2019-07-12T08:32:56Z</time>
      </trkpt>
      <trkpt lat="45.68255" lon="4.53244">
        <ele>773.94751</ele>
        <time>2019-07-12T08:33:32Z</time>
      </trkpt>
      <trkpt lat="45.68192" lon="4.5324">
        <ele>769.447937</ele>
        <time>2019-07-12T08:33:39Z</time>
      </trkpt>
      <trkpt lat="45.68142" lon="4.53247">
        <ele>766.887512</ele>
        <time>2019-07-12T08:33:45Z</time>
      </trkpt>
      <trkpt lat="45.68109" lon="4.53239">
        <ele>764.163513</ele>
        <time>2019-07-12T08:33:53Z</time>
      </trkpt>
      <trkpt lat="45.6807" lon="4.53211">
        <ele>761.557678</ele>
        <time>2019-07-12T08:34:01Z</time>
      </trkpt>
      <trkpt lat="45.68005" lon="4.53123">
        <ele>760.40094</ele>
        <time>2019-07-12T08:34:28Z</time>
      </trkpt>
      <trkpt lat="45.67908" lon="4.53046">
        <ele>759.901794</ele>
        <time>2019-07-12T08:34:49Z</time>
      </trkpt>
      <trkpt lat="45.67892" lon="4.52979">
        <ele>759.154236</ele>
        <time>2019-07-12T08:34:59Z</time>
      </trkpt>
      <trkpt lat="45.67825" lon="4.52862">
        <ele>756.584351</ele>
        <time>2019-07-12T08:35:13Z</time>
      </trkpt>
      <trkpt lat="45.67733" lon="4.52745">
        <ele>752.603027</ele>
        <time>2019-07-12T08:35:25Z</time>
      </trkpt>
      <trkpt lat="45.67593" lon="4.52657">
        <ele>739.79248</ele>
        <time>2019-07-12T08:35:38Z</time>
      </trkpt>
      <trkpt lat="45.67564" lon="4.52657">
        <ele>739.224976</ele>
        <time>2019-07-12T08:35:46Z</time>
      </trkpt>
      <trkpt lat="45.6754" lon="4.52645">
        <ele>738.724976</ele>
        <time>2019-07-12T08:35:51Z</time>
      </trkpt>
      <trkpt lat="45.67514" lon="4.52614">
        <ele>737.462219</ele>
        <time>2019-07-12T08:36:02Z</time>
      </trkpt>
      <trkpt lat="45.67481" lon="4.52593">
        <ele>736.75238</ele>
        <time>2019-07-12T08:36:17Z</time>
      </trkpt>
      <trkpt lat="45.6737" lon="4.52559">
        <ele>732.326111</ele>
        <time>2019-07-12T08:36:32Z</time>
      </trkpt>
      <trkpt lat="45.67278" lon="4.52541">
        <ele>728.001465</ele>
        <time>2019-07-12T08:36:36Z</time>
      </trkpt>
      <trkpt lat="45.6724" lon="4.52514">
        <ele>725.270203</ele>
        <time>2019-07-12T08:36:48Z</time>
      </trkpt>
      <trkpt lat="45.67212" lon="4.52438">
        <ele>725.270996</ele>
        <time>2019-07-12T08:36:58Z</time>
      </trkpt>
      <trkpt lat="45.6716" lon="4.52437">
        <ele>724.72699</ele>
        <time>2019-07-12T08:37:07Z</time>
      </trkpt>
      <trkpt lat="45.67112" lon="4.52401">
        <ele>725.41687</ele>
        <time>2019-07-12T08:37:17Z</time>
      </trkpt>
      <trkpt lat="45.67088" lon="4.52366">
        <ele>725.539429</ele>
        <time>2019-07-12T08:37:25Z</time>
      </trkpt>
      <trkpt lat="45.67068" lon="4.52353">
        <ele>724.955811</ele>
        <time>2019-07-12T08:37:34Z</time>
      </trkpt>
      <trkpt lat="45.67021" lon="4.52358">
        <ele>725.270325</ele>
        <time>2019-07-12T08:37:41Z</time>
      </trkpt>
      <trkpt lat="45.66964" lon="4.52323">
        <ele>728.927185</ele>
        <time>2019-07-12T08:37:53Z</time>
      </trkpt>
      <trkpt lat="45.66901" lon="4.52304">
        <ele>732.405029</ele>
        <time>2019-07-12T08:38:24Z</time>
      </trkpt>
      <trkpt lat="45.66889" lon="4.52282">
        <ele>732.224976</ele>
        <time>2019-07-12T08:38:43Z</time>
      </trkpt>
      <trkpt lat="45.6685" lon="4.52241">
        <ele>735.374756</ele>
        <time>2019-07-12T08:38:55Z</time>
      </trkpt>
      <trkpt lat="45.66826" lon="4.52186">
        <ele>737.532715</ele>
        <time>2019-07-12T08:38:59Z</time>
      </trkpt>
      <trkpt lat="45.66822" lon="4.52132">
        <ele>737.361023</ele>
        <time>2019-07-12T08:39:08Z</time>
      </trkpt>
      <trkpt lat="45.66805" lon="4.52078">
        <ele>739.035583</ele>
        <time>2019-07-12T08:39:10Z</time>
      </trkpt>
      <trkpt lat="45.66783" lon="4.52036">
        <ele>743.357971</ele>
        <time>2019-07-12T08:39:16Z</time>
      </trkpt>
      <trkpt lat="45.66769" lon="4.51983">
        <ele>746.45697</ele>
        <time>2019-07-12T08:39:18Z</time>
      </trkpt>
      <trkpt lat="45.66767" lon="4.51941">
        <ele>748.122131</ele>
        <time>2019-07-12T08:39:27Z</time>
      </trkpt>
      <trkpt lat="45.66749" lon="4.51871">
        <ele>752.078796</ele>
        <time>2019-07-12T08:39:58Z</time>
      </trkpt>
      <trkpt lat="45.66675" lon="4.51718">
        <ele>766.80542</ele>
        <time>2019-07-12T08:40:12Z</time>
      </trkpt>
      <trkpt lat="45.66732" lon="4.5163">
        <ele>773.277344</ele>
        <time>2019-07-12T08:40:17Z</time>
      </trkpt>
      <trkpt lat="45.6675" lon="4.51562">
        <ele>782.642578</ele>
        <time>2019-07-12T08:40:20Z</time>
      </trkpt>
      <trkpt lat="45.66761" lon="4.51543">
        <ele>785.875488</ele>
        <time>2019-07-12T08:40:34Z</time>
      </trkpt>
      <trkpt lat="45.66722" lon="4.51537">
        <ele>785.178711</ele>
        <time>2019-07-12T08:40:40Z</time>
      </trkpt>
      <trkpt lat="45.6672" lon="4.5153">
        <ele>786.246521</ele>
        <time>2019-07-12T08:40:49Z</time>
      </trkpt>
      <trkpt lat="45.66744" lon="4.51516">
        <ele>789.143433</ele>
        <time>2019-07-12T08:41:25Z</time>
      </trkpt>
      <trkpt lat="45.66741" lon="4.51502">
        <ele>791.132629</ele>
        <time>2019-07-12T08:41:35Z</time>
      </trkpt>
      <trkpt lat="45.66706" lon="4.51488">
        <ele>792.269775</ele>
        <time>2019-07-12T08:41:49Z</time>
      </trkpt>
      <trkpt lat="45.66641" lon="4.51321">
        <ele>809.652527</ele>
        <time>2019-07-12T08:41:54Z</time>
      </trkpt>
      <trkpt lat="45.66653" lon="4.51239">
        <ele>818.846008</ele>
        <time>2019-07-12T08:42:09Z</time>
      </trkpt>
      <trkpt lat="45.66674" lon="4.51259">
        <ele>821.561707</ele>
        <time>2019-07-12T08:42:12Z</time>
      </trkpt>
      <trkpt lat="45.66683" lon="4.51256">
        <ele>823.542053</ele>
        <time>2019-07-12T08:42:29Z</time>
      </trkpt>
      <trkpt lat="45.66733" lon="4.51206">
        <ele>834.691528</ele>
        <time>2019-07-12T08:43:02Z</time>
      </trkpt>
      <trkpt lat="45.66748" lon="4.51172">
        <ele>838.347473</ele>
        <time>2019-07-12T08:43:26Z</time>
      </trkpt>
      <trkpt lat="45.66755" lon="4.51118">
        <ele>841.544983</ele>
        <time>2019-07-12T08:43:39Z</time>
      </trkpt>
      <trkpt lat="45.66846" lon="4.5094">
        <ele>848.369751</ele>
        <time>2019-07-12T08:43:44Z</time>
      </trkpt>
      <trkpt lat="45.66867" lon="4.50887">
        <ele>848.124329</ele>
        <time>2019-07-12T08:43:57Z</time>
      </trkpt>
      <trkpt lat="45.6691" lon="4.50826">
        <ele>843.515503</ele>
        <time>2019-07-12T08:44:05Z</time>
      </trkpt>
      <trkpt lat="45.66915" lon="4.50799">
        <ele>844.40387</ele>
        <time>2019-07-12T08:44:10Z</time>
      </trkpt>
      <trkpt lat="45.66906" lon="4.50705">
        <ele>845.290344</ele>
        <time>2019-07-12T08:44:30Z</time>
      </trkpt>
      <trkpt lat="45.66896" lon="4.50696">
        <ele>844.253296</ele>
        <time>2019-07-12T08:44:55Z</time>
      </trkpt>
      <trkpt lat="45.66826" lon="4.50678">
        <ele>840.169983</ele>
        <time>2019-07-12T08:45:09Z</time>
      </trkpt>
      <trkpt lat="45.66733" lon="4.50525">
        <ele>822.107483</ele>
        <time>2019-07-12T08:45:18Z</time>
      </trkpt>
      <trkpt lat="45.66656" lon="4.50428">
        <ele>815.050049</ele>
        <time>2019-07-12T08:45:39Z</time>
      </trkpt>
      <trkpt lat="45.66628" lon="4.5036">
        <ele>806.930725</ele>
        <time>2019-07-12T08:45:57Z</time>
      </trkpt>
      <trkpt lat="45.66608" lon="4.50343">
        <ele>805.016479</ele>
        <time>2019-07-12T08:46:03Z</time>
      </trkpt>
      <trkpt lat="45.66555" lon="4.50368">
        <ele>801.931274</ele>
        <time>2019-07-12T08:46:55Z</time>
      </trkpt>
      <trkpt lat="45.66524" lon="4.50375">
        <ele>798.465027</ele>
        <time>2019-07-12T08:47:54Z</time>
      </trkpt>
      <trkpt lat="45.66501" lon="4.50364">
        <ele>796.918274</ele>
        <time>2019-07-12T08:48:22Z</time>
      </trkpt>
      <trkpt lat="45.66452" lon="4.50266">
        <ele>783.294067</ele>
        <time>2019-07-12T08:48:31Z</time>
      </trkpt>
      <trkpt lat="45.66372" lon="4.50162">
        <ele>770.989929</ele>
        <time>2019-07-12T08:48:54Z</time>
      </trkpt>
      <trkpt lat="45.66334" lon="4.50094">
        <ele>768.731689</ele>
        <time>2019-07-12T08:48:58Z</time>
      </trkpt>
      <trkpt lat="45.66304" lon="4.5006">
        <ele>766.591736</ele>
        <time>2019-07-12T08:49:04Z</time>
      </trkpt>
      <trkpt lat="45.66228" lon="4.49996">
        <ele>764.419495</ele>
        <time>2019-07-12T08:49:06Z</time>
      </trkpt>
      <trkpt lat="45.6618" lon="4.49912">
        <ele>763.574768</ele>
        <time>2019-07-12T08:49:12Z</time>
      </trkpt>
      <trkpt lat="45.66154" lon="4.49895">
        <ele>762.390015</ele>
        <time>2019-07-12T08:49:20Z</time>
      </trkpt>
      <trkpt lat="45.65935" lon="4.49957">
        <ele>762.11499</ele>
        <time>2019-07-12T08:49:33Z</time>
      </trkpt>
      <trkpt lat="45.65688" lon="4.50004">
        <ele>763.320007</ele>
        <time>2019-07-12T08:49:44Z</time>
      </trkpt>
      <trkpt lat="45.65567" lon="4.50038">
        <ele>767.62677</ele>
        <time>2019-07-12T08:50:16Z</time>
      </trkpt>
      <trkpt lat="45.65529" lon="4.50028">
        <ele>769.401245</ele>
        <time>2019-07-12T08:50:38Z</time>
      </trkpt>
      <trkpt lat="45.65441" lon="4.49977">
        <ele>771.105225</ele>
        <time>2019-07-12T08:50:41Z</time>
      </trkpt>
      <trkpt lat="45.65432" lon="4.49951">
        <ele>771.19751</ele>
        <time>2019-07-12T08:50:55Z</time>
      </trkpt>
      <trkpt lat="45.65436" lon="4.49917">
        <ele>772.55249</ele>
        <time>2019-07-12T08:51:07Z</time>
      </trkpt>
      <trkpt lat="45.65444" lon="4.49907">
        <ele>773.506165</ele>
        <time>2019-07-12T08:51:12Z</time>
      </trkpt>
      <trkpt lat="45.65468" lon="4.49905">
        <ele>773.558228</ele>
        <time>2019-07-12T08:51:28Z</time>
      </trkpt>
      <trkpt lat="45.65486" lon="4.49867">
        <ele>772.667603</ele>
        <time>2019-07-12T08:51:35Z</time>
      </trkpt>
      <trkpt lat="45.65505" lon="4.49787">
        <ele>766.804993</ele>
        <time>2019-07-12T08:51:49Z</time>
      </trkpt>
      <trkpt lat="45.65503" lon="4.49721">
        <ele>760.583984</ele>
        <time>2019-07-12T08:52:13Z</time>
      </trkpt>
      <trkpt lat="45.65551" lon="4.49539">
        <ele>735.48999</ele>
        <time>2019-07-12T08:52:34Z</time>
      </trkpt>
      <trkpt lat="45.6559" lon="4.49418">
        <ele>721.931702</ele>
        <time>2019-07-12T08:52:40Z</time>
      </trkpt>
      <trkpt lat="45.65584" lon="4.494">
        <ele>721.098755</ele>
        <time>2019-07-12T08:52:50Z</time>
      </trkpt>
      <trkpt lat="45.65528" lon="4.49362">
        <ele>717.683899</ele>
        <time>2019-07-12T08:53:06Z</time>
      </trkpt>
      <trkpt lat="45.65492" lon="4.49311">
        <ele>712.583191</ele>
        <time>2019-07-12T08:53:15Z</time>
      </trkpt>
      <trkpt lat="45.65482" lon="4.49283">
        <ele>711.375305</ele>
        <time>2019-07-12T08:53:33Z</time>
      </trkpt>
      <trkpt lat="45.65485" lon="4.49188">
        <ele>710.255859</ele>
        <time>2019-07-12T08:53:52Z</time>
      </trkpt>
      <trkpt lat="45.6548" lon="4.49143">
        <ele>711.523987</ele>
        <time>2019-07-12T08:54:23Z</time>
      </trkpt>
      <trkpt lat="45.65456" lon="4.49067">
        <ele>712.572021</ele>
        <time>2019-07-12T08:54:31Z</time>
      </trkpt>
      <trkpt lat="45.65398" lon="4.48944">
        <ele>708.397522</ele>
        <time>2019-07-12T08:54:39Z</time>
      </trkpt>
      <trkpt lat="45.65358" lon="4.48828">
        <ele>700.317078</ele>
        <time>2019-07-12T08:54:48Z</time>
      </trkpt>
      <trkpt lat="45.65352" lon="4.48795">
        <ele>698.901367</ele>
        <time>2019-07-12T08:54:53Z</time>
      </trkpt>
      <trkpt lat="45.6533" lon="4.48742">
        <ele>699.501221</ele>
        <time>2019-07-12T08:54:58Z</time>
      </trkpt>
      <trkpt lat="45.65312" lon="4.48648">
        <ele>699.003113</ele>
        <time>2019-07-12T08:55:02Z</time>
      </trkpt>
      <trkpt lat="45.65291" lon="4.48601">
        <ele>699.164978</ele>
        <time>2019-07-12T08:55:13Z</time>
      </trkpt>
      <trkpt lat="45.65262" lon="4.485">
        <ele>695.684998</ele>
        <time>2019-07-12T08:55:35Z</time>
      </trkpt>
      <trkpt lat="45.65261" lon="4.48382">
        <ele>686.938721</ele>
        <time>2019-07-12T08:55:54Z</time>
      </trkpt>
      <trkpt lat="45.65222" lon="4.48201">
        <ele>673.477234</ele>
        <time>2019-07-12T08:56:16Z</time>
      </trkpt>
      <trkpt lat="45.65224" lon="4.48152">
        <ele>669.459656</ele>
        <time>2019-07-12T08:56:40Z</time>
      </trkpt>
      <trkpt lat="45.6521" lon="4.48103">
        <ele>665.970337</ele>
        <time>2019-07-12T08:56:54Z</time>
      </trkpt>
      <trkpt lat="45.65184" lon="4.48066">
        <ele>661.868408</ele>
        <time>2019-07-12T08:57:12Z</time>
      </trkpt>
      <trkpt lat="45.65166" lon="4.48054">
        <ele>660.859131</ele>
        <time>2019-07-12T08:57:15Z</time>
      </trkpt>
      <trkpt lat="45.65143" lon="4.48055">
        <ele>661.369202</ele>
        <time>2019-07-12T08:57:22Z</time>
      </trkpt>
      <trkpt lat="45.65127" lon="4.48045">
        <ele>660.27179</ele>
        <time>2019-07-12T08:57:25Z</time>
      </trkpt>
      <trkpt lat="45.65093" lon="4.47998">
        <ele>656.670349</ele>
        <time>2019-07-12T08:57:38Z</time>
      </trkpt>
      <trkpt lat="45.65046" lon="4.47879">
        <ele>646.024109</ele>
        <time>2019-07-12T08:57:45Z</time>
      </trkpt>
      <trkpt lat="45.64993" lon="4.47794">
        <ele>646.595459</ele>
        <time>2019-07-12T08:57:50Z</time>
      </trkpt>
      <trkpt lat="45.64963" lon="4.47668">
        <ele>643.279541</ele>
        <time>2019-07-12T08:57:57Z</time>
      </trkpt>
      <trkpt lat="45.64918" lon="4.47537">
        <ele>634.783447</ele>
        <time>2019-07-12T08:58:28Z</time>
      </trkpt>
      <trkpt lat="45.64897" lon="4.47452">
        <ele>628.562988</ele>
        <time>2019-07-12T08:58:35Z</time>
      </trkpt>
      <trkpt lat="45.64916" lon="4.4735">
        <ele>632.484436</ele>
        <time>2019-07-12T08:58:37Z</time>
      </trkpt>
      <trkpt lat="45.64924" lon="4.4733">
        <ele>634.600525</ele>
        <time>2019-07-12T08:58:44Z</time>
      </trkpt>
      <trkpt lat="45.64946" lon="4.47305">
        <ele>639.1875</ele>
        <time>2019-07-12T08:58:54Z</time>
      </trkpt>
      <trkpt lat="45.64952" lon="4.47285">
        <ele>641.702515</ele>
        <time>2019-07-12T08:59:10Z</time>
      </trkpt>
      <trkpt lat="45.6494" lon="4.4721">
        <ele>647.94873</ele>
        <time>2019-07-12T08:59:14Z</time>
      </trkpt>
      <trkpt lat="45.64926" lon="4.4717">
        <ele>649.794006</ele>
        <time>2019-07-12T08:59:20Z</time>
      </trkpt>
      <trkpt lat="45.64925" lon="4.47143">
        <ele>651.662781</ele>
        <time>2019-07-12T08:59:26Z</time>
      </trkpt>
      <trkpt lat="45.64935" lon="4.47098">
        <ele>654.612793</ele>
        <time>2019-07-12T08:59:30Z</time>
      </trkpt>
      <trkpt lat="45.65032" lon="4.46977">
        <ele>654.354492</ele>
        <time>2019-07-12T08:59:42Z</time>
      </trkpt>
      <trkpt lat="45.65061" lon="4.46994">
        <ele>655.617493</ele>
        <time>2019-07-12T08:59:59Z</time>
      </trkpt>
      <trkpt lat="45.6507" lon="4.46986">
        <ele>654.70752</ele>
        <time>2019-07-12T09:00:04Z</time>
      </trkpt>
      <trkpt lat="45.65069" lon="4.46943">
        <ele>650.017517</ele>
        <time>2019-07-12T09:00:17Z</time>
      </trkpt>
      <trkpt lat="45.65081" lon="4.46889">
        <ele>643.674255</ele>
        <time>2019-07-12T09:00:28Z</time>
      </trkpt>
      <trkpt lat="45.65132" lon="4.46822">
        <ele>635.390503</ele>
        <time>2019-07-12T09:00:36Z</time>
      </trkpt>
      <trkpt lat="45.65134" lon="4.46797">
        <ele>631.649658</ele>
        <time>2019-07-12T09:00:46Z</time>
      </trkpt>
      <trkpt lat="45.65117" lon="4.46766">
        <ele>628.176086</ele>
        <time>2019-07-12T09:00:49Z</time>
      </trkpt>
      <trkpt lat="45.65093" lon="4.46757">
        <ele>628.499695</ele>
        <time>2019-07-12T09:01:02Z</time>
      </trkpt>
      <trkpt lat="45.65081" lon="4.46739">
        <ele>627.537537</ele>
        <time>2019-07-12T09:01:25Z</time>
      </trkpt>
      <trkpt lat="45.65082" lon="4.46667">
        <ele>621.463379</ele>
        <time>2019-07-12T09:01:52Z</time>
      </trkpt>
      <trkpt lat="45.65071" lon="4.46563">
        <ele>616.064514</ele>
        <time>2019-07-12T09:02:16Z</time>
      </trkpt>
      <trkpt lat="45.65059" lon="4.46539">
        <ele>615.621399</ele>
        <time>2019-07-12T09:02:33Z</time>
      </trkpt>
      <trkpt lat="45.65006" lon="4.46505">
        <ele>619.802673</ele>
        <time>2019-07-12T09:02:54Z</time>
      </trkpt>
      <trkpt lat="45.64971" lon="4.46463">
        <ele>620.23999</ele>
        <time>2019-07-12T09:03:12Z</time>
      </trkpt>
      <trkpt lat="45.64939" lon="4.4645">
        <ele>623.070007</ele>
        <time>2019-07-12T09:03:18Z</time>
      </trkpt>
      <trkpt lat="45.64897" lon="4.46451">
        <ele>627.921875</ele>
        <time>2019-07-12T09:03:20Z</time>
      </trkpt>
      <trkpt lat="45.64885" lon="4.46441">
        <ele>628.158142</ele>
        <time>2019-07-12T09:03:47Z</time>
      </trkpt>
      <trkpt lat="45.64855" lon="4.46374">
        <ele>627.822327</ele>
        <time>2019-07-12T09:03:52Z</time>
      </trkpt>
      <trkpt lat="45.64774" lon="4.46288">
        <ele>632.60498</ele>
        <time>2019-07-12T09:03:58Z</time>
      </trkpt>
      <trkpt lat="45.64675" lon="4.46203">
        <ele>636.50647</ele>
        <time>2019-07-12T09:04:22Z</time>
      </trkpt>
      <trkpt lat="45.64581" lon="4.46148">
        <ele>639.327026</ele>
        <time>2019-07-12T09:04:26Z</time>
      </trkpt>
      <trkpt lat="45.6451" lon="4.46148">
        <ele>641.160156</ele>
        <time>2019-07-12T09:04:35Z</time>
      </trkpt>
      <trkpt lat="45.64421" lon="4.46133">
        <ele>639.949463</ele>
        <time>2019-07-12T09:04:44Z</time>
      </trkpt>
      <trkpt lat="45.64343" lon="4.46148">
        <ele>636.477112</ele>
        <time>2019-07-12T09:04:49Z</time>
      </trkpt>
      <trkpt lat="45.6432" lon="4.46139">
        <ele>634.790344</ele>
        <time>2019-07-12T09:04:58Z</time>
      </trkpt>
      <trkpt lat="45.64319" lon="4.46123">
        <ele>634.38739</ele>
        <time>2019-07-12T09:05:15Z</time>
      </trkpt>
      <trkpt lat="45.64354" lon="4.4597">
        <ele>631.4953</ele>
        <time>2019-07-12T09:05:20Z</time>
      </trkpt>
      <trkpt lat="45.64357" lon="4.45935">
        <ele>630.44519</ele>
        <time>2019-07-12T09:05:35Z</time>
      </trkpt>
      <trkpt lat="45.64366" lon="4.45905">
        <ele>629.215027</ele>
        <time>2019-07-12T09:05:40Z</time>
      </trkpt>
      <trkpt lat="45.64472" lon="4.45913">
        <ele>617.391785</ele>
        <time>2019-07-12T09:05:59Z</time>
      </trkpt>
      <trkpt lat="45.64477" lon="4.45893">
        <ele>612.795349</ele>
        <time>2019-07-12T09:06:04Z</time>
      </trkpt>
      <trkpt lat="45.64475" lon="4.4584">
        <ele>611.825989</ele>
        <time>2019-07-12T09:06:09Z</time>
      </trkpt>
      <trkpt lat="45.64487" lon="4.45786">
        <ele>609.655151</ele>
        <time>2019-07-12T09:06:45Z</time>
      </trkpt>
      <trkpt lat="45.64498" lon="4.45759">
        <ele>608.515076</ele>
      </trkpt>
      <trkpt lat="45.64503" lon="4.45706">
        <ele>606.748596</ele>
      </trkpt>
      <trkpt lat="45.64575" lon="4.45727">
        <ele>606.37915</ele>
      </trkpt>
      <trkpt lat="45.64599" lon="4.45722">
        <ele>607.307739</ele>
      </trkpt>
      <trkpt lat="45.6465" lon="4.45668">
        <ele>612.518677</ele>
      </trkpt>
      <trkpt lat="45.64664" lon="4.45645">
        <ele>615.584534</ele>
      </trkpt>
      <trkpt lat="45.64633" lon="4.45539">
        <ele>616.856262</ele>
      </trkpt>
      <trkpt lat="45.64618" lon="4.45515">
        <ele>616.912598</ele>
      </trkpt>
      <trkpt lat="45.64611" lon="4.45487">
        <ele>618.151672</ele>
      </trkpt>
      <trkpt lat="45.64649" lon="4.45271">
        <ele>628.977295</ele>
      </trkpt>
      <trkpt lat="45.64685" lon="4.45154">
        <ele>634.931885</ele>
      </trkpt>
      <trkpt lat="45.64695" lon="4.45088">
        <ele>639.390625</ele>
      </trkpt>
    </trkseg>
  </trk>
</gpx>